Terminal Aerodrome Forecast
Issued by NWS Tuscon, AZ

Home | Current Version | Previous Version | Text Only | Print | Product List | Glossary On
Versions: 1 2 3 4 5 6 7 8 9 10 11 12
717
FTUS45 KTWC 101134
TAFTUS
TAF
KTUS 101134Z 1012/1112 14009KT P6SM SKC
     FM101600 12014G20KT P6SM SKC
     FM102000 09006KT P6SM SKC
     FM110300 VRB05KT P6SM SKC=

USA.gov is the U.S. government's official web portal to all federal, state and local government web resources and services.